Airfield :







YOU CAN JOIN US ON...

 
LOGIN :

Register | Disclaimer

   EN    FR    IT 

 









Legend :    VFR   Marginal VFR   IFR   Intensive IFR   Very Intensive IFR
Visi :
Ceiling :
>= 8 km
>= 3000ft
5 to 8 km
1000 to 3000 ft
1500m to 5 km
500 to 1000 ft
800 to 1500m
200 to 500 ft
< 800m
< 200 ft
Symbols :   Thunderstorms  Fog  Heavy snow  Heavy precipitations  Wind > 20 kt






- Airport Elevation : 71 ft
- IATA code : YBC


CYBC - Baie Comeau

CURRENT METAR :
  • 270200Z AUTO 28006KT 8SM OVC110 15/15 A2971 RMK SLP064 DENSITY ALT 400FT

EXPIRED METARs :
  • 270100Z AUTO 19005KT 9SM SCT110 16/15 A2972 RMK SLP065 DENSITY ALT 400FT
  • 270000Z AUTO 35003KT 9SM OVC100 17/17 A2969 RMK LTNG DIST SE SLP056 DENSITY ALT 700FT

TAF TAF CYBC
Valid from the 27 at 02:00 until the 27 at 14:00 UTC


270139Z 2702/2714 VRB03KT P6SM OVC100
FM270600 27010KT P6SM BKN015 BKN030
TEMPO 2706/2714 SCT015 BKN030 RMK FCST BASED ON AUTO OBS. NXT FCST BY 270800Z
CZUL FIR / North America



MET'MAP, your aeronautical weather chart ! - Copyright ORBIFLY December 2007 - Disclaimer

ORBIFLY MET'MAP TEAM :

Programming & Development : Alexandra Zaïnal
Concept & original design : Baudouin d'Aumeries
Assistance for programming : Marc-Olivier Méhu
Technical & hardware support : Manuel Goepfert

Contact : metmap@orbifly.com




SOURCES & CREDITS :

   NOAA